Time;durP1;ratioP1;P1;durP2;ratioP2;P2;SDS_P1;SDS_P2;PMS_P1;PMS_P2;Temp;Humidity;BMP_temperature;BMP_pressure;BME280_temperature;BME280_humidity;BME280_pressure;Samples;Min_cycle;Max_cycle;Signal;HPM_P1;HPM_P2
2023/03/13 00:00:51;;;;;;;4.10;3.03;;;;;;;;;;5072469;28;20463;-72
2023/03/13 00:03:18;;;;;;;4.30;3.17;;;;;;;;;;5072769;28;20948;-72
2023/03/13 00:05:45;;;;;;;5.50;2.83;;;;;;;;;;5071837;28;20459;-72
2023/03/13 00:08:12;;;;;;;5.17;3.53;;;;;;;;;;5072431;28;20452;-72
2023/03/13 00:10:40;;;;;;;4.43;2.87;;;;;;;;;;5072452;28;20832;-72
2023/03/13 00:13:07;;;;;;;4.47;3.27;;;;;;;;;;5072522;28;20458;-72
2023/03/13 00:15:36;;;;;;;3.20;2.87;;;;;;;;;;5072294;28;20452;-72
2023/03/13 00:18:03;;;;;;;11.40;3.27;;;;;;;;;;5072298;28;20483;-72
2023/03/13 00:20:30;;;;;;;4.87;2.97;;;;;;;;;;5072397;28;20483;-72
2023/03/13 00:22:57;;;;;;;5.00;2.67;;;;;;;;;;5072487;28;20459;-72
2023/03/13 00:25:24;;;;;;;3.83;2.87;;;;;;;;;;5072077;28;20814;-72
2023/03/13 00:27:51;;;;;;;2.80;2.03;;;;;;;;;;5072232;28;20451;-72
2023/03/13 00:30:18;;;;;;;5.67;2.63;;;;;;;;;;5072092;28;20522;-72
2023/03/13 00:32:47;;;;;;;5.83;2.70;;;;;;;;;;5072364;28;20451;-72
2023/03/13 00:35:15;;;;;;;3.87;3.17;;;;;;;;;;5071980;28;20447;-72
2023/03/13 00:37:42;;;;;;;3.43;2.30;;;;;;;;;;5072304;28;20980;-72
2023/03/13 00:40:10;;;;;;;4.67;2.50;;;;;;;;;;5074243;28;20476;-72
2023/03/13 00:42:37;;;;;;;7.53;2.70;;;;;;;;;;5075640;28;20451;-72
2023/03/13 00:45:05;;;;;;;2.70;2.20;;;;;;;;;;5075645;28;20458;-72
2023/03/13 00:47:32;;;;;;;2.33;2.13;;;;;;;;;;5075934;28;20443;-72
2023/03/13 00:50:00;;;;;;;2.77;2.33;;;;;;;;;;5075614;28;20456;-72
2023/03/13 00:52:28;;;;;;;6.10;2.80;;;;;;;;;;5075705;28;20451;-72
2023/03/13 00:54:55;;;;;;;3.50;2.63;;;;;;;;;;5075340;28;20469;-72
2023/03/13 00:57:22;;;;;;;5.63;3.70;;;;;;;;;;5075329;28;20474;-72
2023/03/13 00:59:49;;;;;;;4.20;2.83;;;;;;;;;;5075544;28;20452;-72
2023/03/13 01:02:16;;;;;;;3.80;2.50;;;;;;;;;;5075420;28;20812;-72
2023/03/13 01:04:43;;;;;;;4.47;3.03;;;;;;;;;;5074748;28;20448;-72
2023/03/13 01:07:12;;;;;;;4.53;2.47;;;;;;;;;;5075314;28;20454;-72
2023/03/13 01:09:39;;;;;;;8.50;3.23;;;;;;;;;;5075204;28;20454;-72
2023/03/13 01:12:06;;;;;;;6.50;3.00;;;;;;;;;;5075257;28;20976;-72
2023/03/13 01:14:33;;;;;;;12.03;2.77;;;;;;;;;;5075108;28;20455;-72
2023/03/13 01:17:01;;;;;;;3.87;2.70;;;;;;;;;;5075185;28;20448;-72
2023/03/13 01:19:28;;;;;;;9.50;4.27;;;;;;;;;;5075085;28;20498;-72
2023/03/13 01:21:55;;;;;;;4.67;3.37;;;;;;;;;;5075131;28;20995;-72
2023/03/13 01:24:23;;;;;;;5.40;3.43;;;;;;;;;;5074783;28;20452;-72
2023/03/13 01:26:50;;;;;;;4.13;3.13;;;;;;;;;;5075060;28;20547;-72
2023/03/13 01:29:17;;;;;;;4.13;3.27;;;;;;;;;;5074976;28;20444;-72
2023/03/13 01:31:44;;;;;;;4.43;3.00;;;;;;;;;;5074776;28;20988;-72
2023/03/13 01:34:12;;;;;;;4.17;2.30;;;;;;;;;;5074599;28;20455;-72
2023/03/13 01:36:39;;;;;;;8.90;2.90;;;;;;;;;;5074829;28;20459;-72
2023/03/13 01:39:06;;;;;;;6.20;2.67;;;;;;;;;;5074421;28;20494;-72
2023/03/13 01:41:35;;;;;;;3.53;2.73;;;;;;;;;;5074638;28;20472;-72
2023/03/13 01:44:02;;;;;;;5.70;2.80;;;;;;;;;;5074380;28;20456;-72
2023/03/13 01:46:29;;;;;;;4.03;3.00;;;;;;;;;;5074601;28;20451;-72
2023/03/13 01:48:59;;;;;;;7.83;3.07;;;;;;;;;;5074499;28;20454;-72
2023/03/13 01:51:28;;;;;;;3.97;2.97;;;;;;;;;;5073226;28;20479;-72
2023/03/13 01:53:58;;;;;;;3.87;2.30;;;;;;;;;;5074177;28;20456;-72
2023/03/13 01:56:29;;;;;;;5.23;3.60;;;;;;;;;;5074438;28;20827;-72
2023/03/13 01:58:58;;;;;;;4.17;3.20;;;;;;;;;;5074665;28;20491;-72
2023/03/13 02:01:26;;;;;;;7.03;3.30;;;;;;;;;;5074225;28;20472;-72
2023/03/13 02:03:53;;;;;;;5.60;3.33;;;;;;;;;;5074280;28;20474;-72
2023/03/13 02:06:20;;;;;;;6.10;3.13;;;;;;;;;;5073618;28;20462;-72
2023/03/13 02:08:50;;;;;;;5.80;3.97;;;;;;;;;;5074459;28;20454;-72
2023/03/13 02:11:22;;;;;;;4.37;3.70;;;;;;;;;;5074009;28;20479;-72
2023/03/13 02:13:50;;;;;;;4.33;3.20;;;;;;;;;;5073904;28;20458;-72
2023/03/13 02:16:19;;;;;;;4.73;3.17;;;;;;;;;;5073911;28;20452;-72
2023/03/13 02:18:46;;;;;;;9.83;4.50;;;;;;;;;;5073844;28;20484;-72
2023/03/13 02:21:17;;;;;;;4.73;2.97;;;;;;;;;;5073698;28;20976;-72
2023/03/13 02:23:49;;;;;;;4.27;3.47;;;;;;;;;;5073621;28;20458;-72
2023/03/13 02:26:17;;;;;;;4.00;3.30;;;;;;;;;;5073799;28;20448;-72
2023/03/13 02:28:44;;;;;;;4.37;3.00;;;;;;;;;;5073749;28;20462;-72
2023/03/13 02:31:12;;;;;;;5.17;3.30;;;;;;;;;;5073500;28;21014;-72
2023/03/13 02:33:40;;;;;;;4.50;3.20;;;;;;;;;;5073604;28;20456;-72
2023/03/13 02:36:08;;;;;;;5.40;3.40;;;;;;;;;;5073570;28;20451;-72
2023/03/13 02:38:38;;;;;;;3.37;2.70;;;;;;;;;;5073635;28;20487;-72
2023/03/13 02:41:05;;;;;;;3.93;3.53;;;;;;;;;;5073617;28;20473;-72
2023/03/13 02:43:35;;;;;;;4.80;3.30;;;;;;;;;;5073266;28;20459;-72
2023/03/13 02:46:03;;;;;;;4.90;3.10;;;;;;;;;;5073500;28;20455;-72
2023/03/13 02:48:34;;;;;;;6.90;3.47;;;;;;;;;;5073437;28;20443;-72
2023/03/13 02:51:02;;;;;;;4.30;3.03;;;;;;;;;;5073422;28;20474;-72
2023/03/13 02:53:30;;;;;;;11.30;4.23;;;;;;;;;;5073413;28;20447;-72
2023/03/13 02:55:57;;;;;;;5.63;3.80;;;;;;;;;;5073350;28;20929;-72
2023/03/13 02:58:24;;;;;;;7.80;3.30;;;;;;;;;;5073143;28;20484;-72
2023/03/13 03:00:53;;;;;;;4.33;3.77;;;;;;;;;;5073221;28;20475;-72
2023/03/13 03:03:20;;;;;;;5.70;3.77;;;;;;;;;;5072781;28;20815;-71
2023/03/13 03:05:47;;;;;;;4.73;4.07;;;;;;;;;;5072469;28;20451;-72
2023/03/13 03:08:14;;;;;;;4.63;3.30;;;;;;;;;;5072896;28;20458;-72
2023/03/13 03:10:41;;;;;;;7.13;4.50;;;;;;;;;;5073006;28;20484;-72
2023/03/13 03:13:09;;;;;;;8.63;3.70;;;;;;;;;;5072920;28;20458;-72
2023/03/13 03:15:36;;;;;;;6.90;3.23;;;;;;;;;;5072873;28;20464;-72
2023/03/13 03:18:05;;;;;;;6.60;4.17;;;;;;;;;;5072968;28;20815;-72
2023/03/13 03:20:32;;;;;;;5.03;3.80;;;;;;;;;;5073036;28;20551;-72
2023/03/13 03:22:59;;;;;;;5.30;3.90;;;;;;;;;;5072901;28;20463;-72
2023/03/13 03:25:26;;;;;;;4.30;3.60;;;;;;;;;;5072918;28;20808;-72
2023/03/13 03:27:53;;;;;;;4.80;3.60;;;;;;;;;;5073241;28;20447;-72
2023/03/13 03:30:20;;;;;;;5.20;4.13;;;;;;;;;;5072678;28;20486;-72
2023/03/13 03:32:47;;;;;;;6.90;3.67;;;;;;;;;;5073037;28;20455;-72
2023/03/13 03:35:16;;;;;;;4.77;3.90;;;;;;;;;;5072805;28;20451;-72
2023/03/13 03:37:43;;;;;;;5.80;3.47;;;;;;;;;;5072932;28;20481;-72
2023/03/13 03:40:11;;;;;;;3.83;3.17;;;;;;;;;;5072522;28;20495;-72
2023/03/13 03:42:38;;;;;;;6.10;3.80;;;;;;;;;;5072850;28;20952;-72
2023/03/13 03:45:05;;;;;;;7.27;4.40;;;;;;;;;;5072764;28;20470;-72
2023/03/13 03:47:32;;;;;;;5.00;3.80;;;;;;;;;;5072729;28;20463;-72
2023/03/13 03:49:59;;;;;;;5.40;4.00;;;;;;;;;;5072819;28;20455;-72
2023/03/13 03:52:28;;;;;;;6.77;3.93;;;;;;;;;;5072698;28;20452;-72
2023/03/13 03:54:55;;;;;;;4.83;3.53;;;;;;;;;;5072468;28;20817;-72
2023/03/13 03:57:22;;;;;;;3.53;3.13;;;;;;;;;;5072625;28;20462;-72
2023/03/13 03:59:49;;;;;;;5.70;4.07;;;;;;;;;;5072565;28;20488;-72
2023/03/13 04:02:16;;;;;;;5.97;3.53;;;;;;;;;;5072661;28;20818;-72
2023/03/13 04:04:43;;;;;;;4.50;3.50;;;;;;;;;;5071700;28;20456;-72
2023/03/13 04:07:10;;;;;;;6.00;4.63;;;;;;;;;;5072543;28;20455;-72
2023/03/13 04:09:39;;;;;;;4.30;2.90;;;;;;;;;;5072661;28;20461;-72
2023/03/13 04:12:06;;;;;;;7.27;4.60;;;;;;;;;;5072498;28;20999;-72
2023/03/13 04:14:33;;;;;;;4.70;3.60;;;;;;;;;;5073836;28;20451;-72
2023/03/13 04:17:00;;;;;;;7.70;3.97;;;;;;;;;;5076344;28;20937;-72
2023/03/13 04:19:28;;;;;;;3.70;3.23;;;;;;;;;;5076211;28;20495;-72
2023/03/13 04:21:55;;;;;;;6.20;4.60;;;;;;;;;;5076034;28;20478;-72
2023/03/13 04:24:22;;;;;;;4.13;3.70;;;;;;;;;;5075894;28;20482;-72
2023/03/13 04:26:50;;;;;;;3.50;3.00;;;;;;;;;;5076207;28;20449;-72
2023/03/13 04:29:17;;;;;;;4.60;3.40;;;;;;;;;;5076044;28;20447;-72
2023/03/13 04:31:44;;;;;;;4.40;3.30;;;;;;;;;;5075760;28;20499;-72
2023/03/13 04:34:11;;;;;;;4.63;4.00;;;;;;;;;;5075616;28;20456;-72
2023/03/13 04:36:39;;;;;;;3.40;3.10;;;;;;;;;;5076246;28;20963;-72
2023/03/13 04:39:06;;;;;;;6.13;3.90;;;;;;;;;;5075763;28;20487;-72
2023/03/13 04:41:33;;;;;;;8.13;5.23;;;;;;;;;;5076010;28;20831;-72
2023/03/13 04:44:01;;;;;;;5.13;4.63;;;;;;;;;;5075478;28;20522;-72
2023/03/13 04:46:28;;;;;;;6.23;4.40;;;;;;;;;;5075742;28;20452;-72
2023/03/13 04:48:55;;;;;;;6.63;4.77;;;;;;;;;;5075639;28;20454;-72
2023/03/13 04:51:22;;;;;;;7.40;4.40;;;;;;;;;;5075762;28;20988;-72
2023/03/13 04:53:50;;;;;;;5.57;3.57;;;;;;;;;;5075430;28;20451;-72
2023/03/13 04:56:21;;;;;;;8.00;5.90;;;;;;;;;;5075368;28;20933;-72
2023/03/13 04:58:48;;;;;;;4.77;3.90;;;;;;;;;;5075712;28;20456;-72
2023/03/13 05:01:17;;;;;;;3.60;2.97;;;;;;;;;;5075335;28;20459;-72
2023/03/13 05:03:44;;;;;;;5.07;3.60;;;;;;;;;;5075373;28;20831;-72
2023/03/13 05:06:11;;;;;;;3.30;2.70;;;;;;;;;;5074976;28;20447;-71
2023/03/13 05:08:38;;;;;;;3.50;3.10;;;;;;;;;;5075436;28;20959;-72
2023/03/13 05:11:06;;;;;;;2.93;2.63;;;;;;;;;;5075211;28;20482;-71
2023/03/13 05:13:33;;;;;;;4.97;3.73;;;;;;;;;;5075074;28;20460;-72
2023/03/13 05:16:00;;;;;;;8.40;5.30;;;;;;;;;;5075164;28;20448;-72
2023/03/13 05:18:29;;;;;;;5.10;3.17;;;;;;;;;;5075127;28;20455;-72
2023/03/13 05:20:56;;;;;;;3.93;3.50;;;;;;;;;;5074979;28;20574;-72
2023/03/13 05:23:23;;;;;;;5.60;4.03;;;;;;;;;;5075080;28;20452;-72
2023/03/13 05:25:50;;;;;;;4.67;3.50;;;;;;;;;;5074669;28;20824;-72
2023/03/13 05:28:17;;;;;;;3.43;2.97;;;;;;;;;;5075252;28;20458;-72
2023/03/13 05:30:44;;;;;;;3.83;2.30;;;;;;;;;;5074838;28;21003;-72
2023/03/13 05:33:11;;;;;;;3.60;3.07;;;;;;;;;;5074928;28;20459;-72
2023/03/13 05:35:40;;;;;;;3.80;2.80;;;;;;;;;;5074676;28;20448;-72
2023/03/13 05:38:07;;;;;;;2.87;2.43;;;;;;;;;;5074685;28;20456;-72
2023/03/13 05:40:34;;;;;;;5.83;3.27;;;;;;;;;;5075051;28;20495;-72
2023/03/13 05:43:01;;;;;;;3.13;2.20;;;;;;;;;;5074862;28;20448;-72
2023/03/13 05:45:29;;;;;;;3.00;2.50;;;;;;;;;;5074664;28;20554;-72
2023/03/13 05:47:57;;;;;;;3.53;2.90;;;;;;;;;;5074549;28;20794;-72
2023/03/13 05:50:25;;;;;;;3.13;2.57;;;;;;;;;;5074566;28;20483;-72
2023/03/13 05:52:53;;;;;;;4.27;2.67;;;;;;;;;;5074676;28;20459;-72
2023/03/13 05:55:20;;;;;;;4.93;4.10;;;;;;;;;;5074136;28;20452;-72
2023/03/13 05:57:48;;;;;;;6.73;3.80;;;;;;;;;;5074438;28;20957;-72
2023/03/13 06:00:16;;;;;;;3.83;2.70;;;;;;;;;;5074239;28;20492;-72
2023/03/13 06:02:44;;;;;;;4.23;2.47;;;;;;;;;;5074344;28;20452;-72
2023/03/13 06:05:11;;;;;;;3.70;2.60;;;;;;;;;;5073397;28;20464;-73
2023/03/13 06:07:38;;;;;;;2.80;2.50;;;;;;;;;;5074520;28;20543;-72
2023/03/13 06:10:07;;;;;;;2.87;2.30;;;;;;;;;;5074166;28;20921;-72
2023/03/13 06:12:34;;;;;;;3.90;2.87;;;;;;;;;;5071429;28;20816;-73
2023/03/13 06:15:02;;;;;;;2.97;2.40;;;;;;;;;;5072411;28;20456;-72
2023/03/13 06:17:29;;;;;;;2.87;2.20;;;;;;;;;;5074003;28;20455;-72
2023/03/13 06:19:56;;;;;;;3.30;2.33;;;;;;;;;;5073916;28;20859;-72
2023/03/13 06:22:23;;;;;;;6.80;3.93;;;;;;;;;;5073630;28;20959;-72
2023/03/13 06:24:50;;;;;;;8.53;5.70;;;;;;;;;;5073523;28;20456;-72
2023/03/13 06:27:18;;;;;;;3.50;2.40;;;;;;;;;;5073662;28;20504;-72
2023/03/13 06:29:46;;;;;;;4.73;3.90;;;;;;;;;;5073949;28;20436;-72
2023/03/13 06:32:13;;;;;;;3.20;2.40;;;;;;;;;;5073363;28;20463;-72
2023/03/13 06:34:40;;;;;;;6.47;5.80;;;;;;;;;;5073440;28;20543;-72
2023/03/13 06:37:07;;;;;;;7.30;5.13;;;;;;;;;;5073057;28;20452;-72
2023/03/13 06:39:34;;;;;;;5.27;3.93;;;;;;;;;;5073530;28;20487;-72
2023/03/13 06:42:02;;;;;;;4.73;3.33;;;;;;;;;;5073316;28;20548;-72
2023/03/13 06:44:30;;;;;;;2.53;2.20;;;;;;;;;;5073271;28;20513;-72
2023/03/13 06:46:57;;;;;;;4.53;3.00;;;;;;;;;;5073194;28;20470;-72
2023/03/13 06:49:24;;;;;;;7.40;4.70;;;;;;;;;;5073225;28;20817;-72
2023/03/13 06:51:51;;;;;;;5.57;3.23;;;;;;;;;;5073041;28;20478;-72
2023/03/13 06:54:18;;;;;;;4.20;2.80;;;;;;;;;;5073095;28;20534;-72
2023/03/13 06:56:45;;;;;;;4.10;2.60;;;;;;;;;;5073584;28;20444;-72
2023/03/13 06:59:13;;;;;;;12.70;6.63;;;;;;;;;;5072565;28;20443;-72
2023/03/13 07:01:41;;;;;;;7.33;3.40;;;;;;;;;;5073185;28;20476;-72
2023/03/13 07:04:10;;;;;;;6.07;3.47;;;;;;;;;;5073057;28;20452;-72
2023/03/13 07:06:37;;;;;;;15.80;6.83;;;;;;;;;;5072699;28;20460;-72
2023/03/13 07:09:05;;;;;;;5.93;4.17;;;;;;;;;;5073386;28;20444;-72
2023/03/13 07:11:32;;;;;;;5.23;3.70;;;;;;;;;;5073314;28;20471;-72
2023/03/13 07:14:00;;;;;;;4.63;3.07;;;;;;;;;;5072839;28;20940;-73
2023/03/13 07:16:28;;;;;;;4.70;2.97;;;;;;;;;;5073032;28;20562;-72
2023/03/13 07:18:56;;;;;;;11.50;5.70;;;;;;;;;;5072898;28;20458;-72
2023/03/13 07:21:23;;;;;;;11.50;6.13;;;;;;;;;;5072755;28;20711;-72
2023/03/13 07:23:50;;;;;;;7.20;4.10;;;;;;;;;;5072887;28;20462;-72
2023/03/13 07:26:18;;;;;;;4.43;3.83;;;;;;;;;;5072766;28;20455;-72
2023/03/13 07:28:45;;;;;;;5.40;3.77;;;;;;;;;;5072726;28;20447;-72
2023/03/13 07:31:13;;;;;;;6.03;3.63;;;;;;;;;;5072636;28;20848;-72
2023/03/13 07:33:40;;;;;;;6.23;3.50;;;;;;;;;;5073022;28;20474;-72
2023/03/13 07:36:09;;;;;;;5.33;3.10;;;;;;;;;;5072578;28;20460;-72
2023/03/13 07:38:36;;;;;;;5.03;2.43;;;;;;;;;;5072557;28;20447;-72
2023/03/13 07:41:04;;;;;;;6.23;2.80;;;;;;;;;;5069280;28;20504;-72
2023/03/13 07:43:31;;;;;;;3.30;2.33;;;;;;;;;;5071180;28;20443;-73
2023/03/13 07:45:59;;;;;;;3.37;2.20;;;;;;;;;;5071368;28;20452;-72
2023/03/13 07:48:29;;;;;;;2.87;2.10;;;;;;;;;;5071200;28;20455;-72
2023/03/13 07:50:56;;;;;;;4.53;2.23;;;;;;;;;;5075044;28;20464;-72
2023/03/13 07:53:25;;;;;;;3.40;2.77;;;;;;;;;;5075425;28;20451;-72
2023/03/13 07:55:53;;;;;;;3.30;2.50;;;;;;;;;;5075107;28;20456;-72
2023/03/13 07:58:20;;;;;;;9.80;5.83;;;;;;;;;;5075198;28;20513;-72
2023/03/13 08:00:47;;;;;;;3.10;2.70;;;;;;;;;;5075101;28;20518;-73
2023/03/13 08:03:14;;;;;;;7.50;3.00;;;;;;;;;;5074849;28;20451;-72
2023/03/13 08:05:42;;;;;;;20.30;12.37;;;;;;;;;;5075064;28;20814;-72
2023/03/13 08:08:09;;;;;;;7.73;4.87;;;;;;;;;;5061798;28;20479;-72
2023/03/13 08:10:37;;;;;;;8.20;5.17;;;;;;;;;;5054666;28;20471;-73
2023/03/13 08:13:04;;;;;;;6.63;3.83;;;;;;;;;;5054826;28;20827;-72
2023/03/13 08:15:32;;;;;;;2.97;2.60;;;;;;;;;;5055037;28;20460;-73
2023/03/13 08:17:59;;;;;;;4.60;2.70;;;;;;;;;;5054709;28;20459;-73
2023/03/13 08:20:26;;;;;;;2.50;2.13;;;;;;;;;;5054699;28;21001;-72
2023/03/13 08:22:55;;;;;;;3.83;2.93;;;;;;;;;;5054521;28;20459;-73
2023/03/13 08:25:22;;;;;;;4.23;2.83;;;;;;;;;;5054952;28;20448;-72
2023/03/13 08:27:51;;;;;;;4.93;3.10;;;;;;;;;;5072275;28;20455;-72
2023/03/13 08:30:18;;;;;;;4.60;3.43;;;;;;;;;;5074792;28;20483;-72
2023/03/13 08:32:45;;;;;;;4.13;2.47;;;;;;;;;;5075833;28;20454;-71
2023/03/13 08:35:12;;;;;;;4.30;2.63;;;;;;;;;;5075899;28;20827;-72
2023/03/13 08:37:39;;;;;;;4.47;3.13;;;;;;;;;;5075820;28;20459;-72
2023/03/13 08:40:10;;;;;;;6.03;3.13;;;;;;;;;;5075394;28;20483;-71
2023/03/13 08:42:37;;;;;;;7.03;4.60;;;;;;;;;;5075803;28;20909;-71
2023/03/13 08:45:06;;;;;;;7.30;2.53;;;;;;;;;;5075600;28;20444;-71
2023/03/13 08:47:34;;;;;;;3.53;2.57;;;;;;;;;;5076218;28;20443;-71
2023/03/13 08:50:01;;;;;;;3.30;2.83;;;;;;;;;;5075282;28;20941;-71
2023/03/13 08:52:28;;;;;;;4.50;3.23;;;;;;;;;;5075738;28;20818;-71
2023/03/13 08:54:55;;;;;;;4.37;3.17;;;;;;;;;;5075305;28;20462;-71
2023/03/13 08:57:23;;;;;;;3.00;2.10;;;;;;;;;;5075385;28;20478;-71
2023/03/13 08:59:50;;;;;;;3.20;1.90;;;;;;;;;;5074803;28;20501;-71
2023/03/13 09:02:19;;;;;;;3.57;2.00;;;;;;;;;;5075490;28;20454;-72
2023/03/13 09:04:48;;;;;;;5.67;3.80;;;;;;;;;;5074707;28;20436;-72
2023/03/13 09:07:15;;;;;;;4.50;3.30;;;;;;;;;;5075382;28;20447;-72
2023/03/13 09:09:43;;;;;;;4.07;2.30;;;;;;;;;;5075533;28;20447;-71
2023/03/13 09:12:10;;;;;;;3.70;2.00;;;;;;;;;;5075258;28;20463;-72
2023/03/13 09:14:37;;;;;;;2.40;2.07;;;;;;;;;;5075032;28;20451;-72
2023/03/13 09:17:04;;;;;;;2.80;2.00;;;;;;;;;;5075173;28;20462;-72
2023/03/13 09:19:33;;;;;;;3.00;1.97;;;;;;;;;;5075085;28;20458;-72
2023/03/13 09:22:00;;;;;;;2.80;2.13;;;;;;;;;;5074819;28;20517;-72
2023/03/13 09:24:27;;;;;;;4.17;2.20;;;;;;;;;;5074789;28;20447;-72
2023/03/13 09:26:54;;;;;;;3.23;1.90;;;;;;;;;;5075045;28;20466;-72
2023/03/13 09:29:22;;;;;;;5.50;2.60;;;;;;;;;;5074882;28;20979;-72
2023/03/13 09:31:49;;;;;;;4.03;2.80;;;;;;;;;;5074640;28;20476;-72
2023/03/13 09:34:16;;;;;;;6.80;3.27;;;;;;;;;;5074551;28;20456;-72
2023/03/13 09:36:44;;;;;;;11.83;6.10;;;;;;;;;;5074752;28;20459;-72
2023/03/13 09:39:11;;;;;;;4.97;3.17;;;;;;;;;;5074752;28;20451;-72
2023/03/13 09:41:40;;;;;;;3.40;2.40;;;;;;;;;;5074847;28;20507;-72
2023/03/13 09:44:12;;;;;;;3.37;2.57;;;;;;;;;;5074325;28;20936;-72
2023/03/13 09:46:41;;;;;;;3.50;2.70;;;;;;;;;;5074704;28;20896;-72
2023/03/13 09:49:12;;;;;;;2.80;2.50;;;;;;;;;;5074574;28;20452;-72
2023/03/13 09:51:41;;;;;;;3.37;2.43;;;;;;;;;;5074376;28;20677;-72
2023/03/13 09:54:18;;;;;;;3.17;2.30;;;;;;;;;;5074065;28;20560;-72
2023/03/13 09:56:46;;;;;;;4.70;2.43;;;;;;;;;;5074521;28;20459;-72
2023/03/13 09:59:17;;;;;;;6.33;2.47;;;;;;;;;;5074399;28;20926;-72
2023/03/13 10:01:44;;;;;;;3.87;2.37;;;;;;;;;;5074346;28;20491;-72
2023/03/13 10:04:19;;;;;;;6.37;4.57;;;;;;;;;;5073961;28;20459;-72
2023/03/13 10:06:48;;;;;;;4.33;3.20;;;;;;;;;;5073619;28;20451;-73
2023/03/13 10:09:21;;;;;;;5.07;2.90;;;;;;;;;;5074194;28;20466;-72
2023/03/13 10:11:53;;;;;;;4.80;2.50;;;;;;;;;;5073208;28;20475;-72
2023/03/13 10:14:23;;;;;;;3.17;2.23;;;;;;;;;;5073839;28;20941;-72
2023/03/13 10:16:55;;;;;;;4.63;3.37;;;;;;;;;;5073972;28;20471;-72
2023/03/13 10:19:26;;;;;;;5.93;4.10;;;;;;;;;;5074015;28;20451;-72
2023/03/13 10:21:54;;;;;;;6.30;4.50;;;;;;;;;;5073969;28;20514;-72
2023/03/13 10:24:30;;;;;;;10.27;5.70;;;;;;;;;;5073818;28;20945;-72
2023/03/13 10:26:57;;;;;;;5.73;3.80;;;;;;;;;;5074202;28;20451;-72
2023/03/13 10:29:25;;;;;;;5.30;3.27;;;;;;;;;;5073721;28;20448;-72
2023/03/13 10:31:56;;;;;;;5.40;3.23;;;;;;;;;;5073465;28;20476;-72
2023/03/13 10:34:23;;;;;;;7.53;2.70;;;;;;;;;;5073336;28;20455;-72
2023/03/13 10:36:55;;;;;;;3.00;2.03;;;;;;;;;;5073623;28;20456;-72
2023/03/13 10:39:23;;;;;;;4.90;2.83;;;;;;;;;;5073511;28;20447;-72
2023/03/13 10:41:57;;;;;;;6.37;2.37;;;;;;;;;;5073498;28;20495;-72
2023/03/13 10:44:24;;;;;;;4.30;2.97;;;;;;;;;;5073387;28;20451;-72
2023/03/13 10:46:52;;;;;;;4.67;2.60;;;;;;;;;;5073737;28;20451;-72
2023/03/13 10:49:20;;;;;;;2.13;1.80;;;;;;;;;;5073462;28;20487;-72
2023/03/13 10:51:48;;;;;;;3.10;2.47;;;;;;;;;;5073399;28;20468;-72
2023/03/13 10:54:17;;;;;;;6.10;2.60;;;;;;;;;;5073048;28;20455;-72
2023/03/13 10:56:44;;;;;;;3.30;2.27;;;;;;;;;;5073434;28;20451;-72
2023/03/13 10:59:21;;;;;;;4.27;2.83;;;;;;;;;;5073113;28;20959;-73
2023/03/13 11:01:48;;;;;;;3.63;2.20;;;;;;;;;;5073323;28;20499;-73
2023/03/13 11:04:20;;;;;;;8.50;2.63;;;;;;;;;;5073105;28;20836;-72
2023/03/13 11:06:52;;;;;;;2.60;2.10;;;;;;;;;;5072887;28;20452;-72
2023/03/13 11:09:20;;;;;;;2.17;1.93;;;;;;;;;;5073123;28;20444;-73
2023/03/13 11:11:48;;;;;;;2.77;1.70;;;;;;;;;;5073221;28;21059;-72
2023/03/13 11:14:17;;;;;;;4.63;2.10;;;;;;;;;;5072761;28;20450;-73
2023/03/13 11:16:49;;;;;;;5.03;1.70;;;;;;;;;;5073115;28;20448;-72
2023/03/13 11:19:29;;;;;;;2.07;1.60;;;;;;;;;;5073159;28;20455;-73
2023/03/13 11:22:03;;;;;;;5.63;1.87;;;;;;;;;;5072851;28;20491;-73
2023/03/13 11:24:36;;;;;;;3.53;2.20;;;;;;;;;;5072606;28;20462;-73
2023/03/13 11:27:09;;;;;;;3.00;2.40;;;;;;;;;;5073034;28;20456;-73
2023/03/13 11:29:41;;;;;;;6.70;1.67;;;;;;;;;;5073014;28;20478;-73
2023/03/13 11:32:19;;;;;;;2.47;1.80;;;;;;;;;;5072834;28;20475;-72
2023/03/13 11:34:49;;;;;;;1.70;1.40;;;;;;;;;;5072642;28;20465;-72
2023/03/13 11:37:18;;;;;;;6.13;1.77;;;;;;;;;;5073244;28;20490;-73
2023/03/13 11:39:51;;;;;;;3.83;1.80;;;;;;;;;;5072755;28;20451;-73
2023/03/13 11:42:27;;;;;;;2.57;1.93;;;;;;;;;;5072635;28;20484;-72
2023/03/13 11:44:58;;;;;;;2.27;1.63;;;;;;;;;;5072587;28;20469;-73
2023/03/13 11:47:34;;;;;;;2.40;1.77;;;;;;;;;;5072760;28;20451;-72
2023/03/13 11:50:09;;;;;;;4.93;2.30;;;;;;;;;;5072706;28;20463;-72
2023/03/13 11:52:41;;;;;;;3.23;2.20;;;;;;;;;;5072667;28;20451;-72
2023/03/13 11:55:26;;;;;;;1.90;1.70;;;;;;;;;;5072610;28;20452;-72
2023/03/13 11:57:58;;;;;;;3.17;1.97;;;;;;;;;;5071212;28;20977;-72
2023/03/13 12:00:30;;;;;;;2.53;1.70;;;;;;;;;;5072744;28;20483;-72
2023/03/13 12:03:03;;;;;;;3.27;2.97;;;;;;;;;;5072565;28;20492;-72
2023/03/13 12:05:36;;;;;;;2.30;1.87;;;;;;;;;;5071600;28;20498;-72
2023/03/13 12:08:06;;;;;;;2.60;1.87;;;;;;;;;;5072472;28;20932;-73
2023/03/13 12:10:36;;;;;;;2.03;1.50;;;;;;;;;;5072888;28;20499;-73
2023/03/13 12:13:05;;;;;;;1.80;1.40;;;;;;;;;;5072541;28;20479;-73
2023/03/13 12:15:34;;;;;;;1.93;1.60;;;;;;;;;;5072428;28;20464;-73
2023/03/13 12:18:06;;;;;;;2.00;1.60;;;;;;;;;;5072755;28;21040;-73
2023/03/13 12:20:39;;;;;;;6.23;1.77;;;;;;;;;;5072593;28;20475;-73
2023/03/13 12:23:12;;;;;;;2.40;1.57;;;;;;;;;;5072155;28;20949;-73
2023/03/13 12:25:44;;;;;;;1.87;1.40;;;;;;;;;;5072353;28;20774;-73
2023/03/13 12:28:22;;;;;;;2.33;1.40;;;;;;;;;;5072320;28;20463;-73
2023/03/13 12:30:52;;;;;;;2.93;1.60;;;;;;;;;;5072125;28;20493;-73
2023/03/13 12:33:24;;;;;;;5.87;1.30;;;;;;;;;;5072310;28;20443;-73
2023/03/13 12:35:54;;;;;;;1.57;1.10;;;;;;;;;;5074152;28;20466;-73
2023/03/13 12:38:23;;;;;;;2.43;1.70;;;;;;;;;;5076176;28;20448;-73
2023/03/13 12:40:51;;;;;;;2.83;1.30;;;;;;;;;;5075858;28;20814;-73
2023/03/13 12:43:20;;;;;;;5.63;2.60;;;;;;;;;;5075605;28;21003;-73
2023/03/13 12:45:55;;;;;;;1.90;1.50;;;;;;;;;;5075742;28;20455;-73
2023/03/13 12:48:37;;;;;;;2.33;1.50;;;;;;;;;;5075673;28;20477;-72
2023/03/13 12:51:12;;;;;;;1.97;1.40;;;;;;;;;;5075703;28;20481;-73
2023/03/13 12:53:46;;;;;;;2.10;1.50;;;;;;;;;;5075682;28;20446;-73
2023/03/13 12:56:22;;;;;;;2.20;1.80;;;;;;;;;;5075870;28;20967;-73
2023/03/13 12:58:50;;;;;;;1.70;1.50;;;;;;;;;;5075635;28;20456;-72
2023/03/13 13:01:22;;;;;;;2.43;1.60;;;;;;;;;;5075349;28;20477;-72
2023/03/13 13:03:53;;;;;;;1.70;1.20;;;;;;;;;;5075249;28;20455;-73
2023/03/13 13:06:20;;;;;;;1.80;1.33;;;;;;;;;;5074956;28;20462;-72
2023/03/13 13:08:49;;;;;;;3.43;1.57;;;;;;;;;;5075596;28;20861;-72
2023/03/13 13:11:35;;;;;;;1.60;1.20;;;;;;;;;;5075219;28;20495;-72
2023/03/13 13:14:02;;;;;;;2.47;1.20;;;;;;;;;;5075359;28;20454;-72
2023/03/13 13:16:30;;;;;;;1.97;1.00;;;;;;;;;;5075460;28;20456;-72
2023/03/13 13:19:12;;;;;;;1.50;1.20;;;;;;;;;;5075222;28;20420;-72
2023/03/13 13:21:40;;;;;;;1.70;1.10;;;;;;;;;;5075161;28;20514;-72
2023/03/13 13:24:22;;;;;;;2.20;1.30;;;;;;;;;;5074976;28;20498;-71
2023/03/13 13:26:50;;;;;;;2.50;1.30;;;;;;;;;;5074385;28;20457;-72
2023/03/13 13:29:36;;;;;;;1.80;1.37;;;;;;;;;;5074953;28;20622;-72
2023/03/13 13:32:05;;;;;;;1.73;1.10;;;;;;;;;;5074770;28;21015;-71
2023/03/13 13:34:56;;;;;;;1.73;1.37;;;;;;;;;;5074769;28;20509;-71
2023/03/13 13:37:28;;;;;;;2.03;1.13;;;;;;;;;;5059766;28;21024;-73
2023/03/13 13:40:10;;;;;;;1.90;1.20;;;;;;;;;;5074744;28;20448;-72
2023/03/13 13:42:47;;;;;;;2.07;1.40;;;;;;;;;;5074821;28;20494;-72
2023/03/13 13:45:30;;;;;;;5.73;1.00;;;;;;;;;;5074695;28;20947;-72
2023/03/13 13:48:24;;;;;;;1.90;1.27;;;;;;;;;;5074604;28;20463;-72
2023/03/13 13:51:13;;;;;;;2.20;1.30;;;;;;;;;;5074671;28;20997;-72
2023/03/13 13:53:45;;;;;;;3.43;1.20;;;;;;;;;;5069973;28;20546;-72
2023/03/13 13:56:27;;;;;;;2.20;1.50;;;;;;;;;;5074394;28;20455;-72
2023/03/13 13:58:56;;;;;;;1.80;1.13;;;;;;;;;;5074648;28;20456;-71
2023/03/13 14:01:23;;;;;;;2.43;1.30;;;;;;;;;;5074585;28;20467;-71
2023/03/13 14:03:51;;;;;;;1.77;1.20;;;;;;;;;;5074477;28;20450;-72
2023/03/13 14:06:20;;;;;;;1.80;1.30;;;;;;;;;;5073739;28;20829;-71
2023/03/13 14:08:49;;;;;;;2.43;1.67;;;;;;;;;;5074343;28;20452;-71
2023/03/13 14:11:23;;;;;;;3.50;2.00;;;;;;;;;;5073916;28;20470;-72
2023/03/13 14:14:09;;;;;;;1.87;1.20;;;;;;;;;;5074128;28;20478;-71
2023/03/13 14:16:38;;;;;;;2.97;1.50;;;;;;;;;;5074034;28;20445;-71
2023/03/13 14:19:05;;;;;;;2.87;2.37;;;;;;;;;;5073836;28;20454;-72
2023/03/13 14:21:33;;;;;;;2.20;1.47;;;;;;;;;;5073711;28;20474;-71
2023/03/13 14:24:01;;;;;;;2.23;1.20;;;;;;;;;;5073798;28;20448;-72
2023/03/13 14:26:30;;;;;;;1.40;0.90;;;;;;;;;;5073939;28;20447;-71
2023/03/13 14:28:57;;;;;;;1.40;0.90;;;;;;;;;;5073892;28;20459;-72
2023/03/13 14:31:26;;;;;;;1.30;0.93;;;;;;;;;;5073482;28;20491;-71
2023/03/13 14:33:53;;;;;;;1.60;1.10;;;;;;;;;;5073784;28;20794;-74
2023/03/13 14:36:21;;;;;;;2.50;1.40;;;;;;;;;;5073435;28;20451;-71
2023/03/13 14:38:53;;;;;;;1.60;1.03;;;;;;;;;;5073929;28;20474;-71
2023/03/13 14:41:28;;;;;;;1.40;1.00;;;;;;;;;;5073381;28;20482;-71
2023/03/13 14:43:56;;;;;;;3.57;2.30;;;;;;;;;;5073699;28;20487;-71
2023/03/13 14:46:27;;;;;;;3.87;1.10;;;;;;;;;;5073650;28;20479;-71
2023/03/13 14:48:55;;;;;;;1.60;1.30;;;;;;;;;;5073868;28;20456;-71
2023/03/13 14:51:24;;;;;;;1.90;1.10;;;;;;;;;;5073729;28;20536;-71
2023/03/13 14:53:56;;;;;;;1.50;1.10;;;;;;;;;;5073574;28;20462;-71